Impros — D5BS7 — position and weather

sailwx.info

Track history (hours):
 
Tides and Currents Weather Stations Pressure Air Temp Water Temp Dewpoint Dewpoint Depression Visibility Wind Speed Wind Dir Waves Ship Positions

Impros

Last reported at 2016-Apr-25 11:19 UTC. Time now 2016-May-01 11:43 UTC.
Position N 29°47' E 122°05'.

Length 244 m; draft 7.5 m.

Type: Tanker. MMSI: 636015595.

Date/timePositionNaut miles runAvg speedWind from/ knotsBaromVisibWave heightAir tempDewpointWater temp
2016-Apr-25 11:19N 29°47' E 122°05'0 0.3
2016-Apr-25 10:33N 29°47' E 122°05'0 0.4
2016-Apr-25 09:27N 29°47' E 122°05'5 5.3
2016-Apr-25 08:33N 29°50' E 122°09'4 0.4
2016-Apr-24 21:15N 29°53' E 122°13'0 0.0
2016-Apr-24 19:15N 29°53' E 122°13'0 0.1
2016-Apr-24 18:27N 29°53' E 122°13'0 0.0
2016-Apr-24 08:27N 29°53' E 122°13'0 0.1
2016-Apr-24 06:33N 29°53' E 122°13'0 0.0
2016-Apr-24 00:08N 29°53' E 122°13'0 0.0
2016-Apr-23 13:14N 29°53' E 122°13'0 0.1
2016-Apr-23 12:26N 29°53' E 122°13'0 0.1
2016-Apr-23 09:26N 29°53' E 122°13'0 0.0
2016-Apr-23 02:08N 29°53' E 122°13'0 0.0
2016-Apr-22 20:14N 29°53' E 122°13'0 0.0
2016-Apr-22 18:32N 29°53' E 122°13'0 0.1
2016-Apr-22 14:08N 29°53' E 122°13'0 0.0
2016-Apr-22 12:25N 29°53' E 122°13'0 0.2
2016-Apr-22 11:25N 29°53' E 122°13'0 0.0
2016-Apr-22 06:13N 29°53' E 122°13'0 0.0
2016-Apr-21 16:31N 29°53' E 122°13'0 0.0
2016-Apr-21 15:25N 29°53' E 122°13'0 0.2
2016-Apr-21 14:31N 29°53' E 122°13'0 0.0
2016-Apr-21 03:25N 29°53' E 122°13'0 0.0
2016-Apr-20 14:12N 29°53' E 122°13'0 0.1
2016-Apr-20 13:18N 29°53' E 122°13'0 0.1
2016-Apr-20 09:12N 29°53' E 122°13'0 0.0
2016-Apr-20 08:33N 29°53' E 122°13'3 3.3
2016-Apr-20 07:33N 29°50' E 122°13'7 7.0
2016-Apr-20 06:33N 29°45' E 122°19'7 6.7
2016-Apr-20 05:33N 29°44' E 122°27'1 0.6
2016-Apr-20 04:33N 29°44' E 122°27'6 5.6
2016-Apr-20 03:28N 29°39' E 122°31'1211.3
2016-Apr-20 02:24N 29°27' E 122°31'  
Track history (hours):
 
Tides and Currents Weather Stations Pressure Air Temp Water Temp Dewpoint Dewpoint Depression Visibility Wind Speed Wind Dir Waves Ship Positions

Impros

Last reported at 2016-Apr-25 11:19 UTC. Time now 2016-May-01 11:43 UTC.
Position N 29°47' E 122°05'.

Length 244 m; draft 7.5 m.

Type: Tanker. MMSI: 636015595.

Date/timePositionNaut miles runAvg speedWind from/ knotsBaromVisibWave heightAir tempDewpointWater temp
2016-Apr-25 11:19N 29°47' E 122°05'0 0.3
2016-Apr-25 10:33N 29°47' E 122°05'0 0.4
2016-Apr-25 09:27N 29°47' E 122°05'5 5.3
2016-Apr-25 08:33N 29°50' E 122°09'4 0.4
2016-Apr-24 21:15N 29°53' E 122°13'0 0.0
2016-Apr-24 19:15N 29°53' E 122°13'0 0.1
2016-Apr-24 18:27N 29°53' E 122°13'0 0.0
2016-Apr-24 08:27N 29°53' E 122°13'0 0.1
2016-Apr-24 06:33N 29°53' E 122°13'0 0.0
2016-Apr-24 00:08N 29°53' E 122°13'0 0.0
2016-Apr-23 13:14N 29°53' E 122°13'0 0.1
2016-Apr-23 12:26N 29°53' E 122°13'0 0.1
2016-Apr-23 09:26N 29°53' E 122°13'0 0.0
2016-Apr-23 02:08N 29°53' E 122°13'0 0.0
2016-Apr-22 20:14N 29°53' E 122°13'0 0.0
2016-Apr-22 18:32N 29°53' E 122°13'0 0.1
2016-Apr-22 14:08N 29°53' E 122°13'0 0.0
2016-Apr-22 12:25N 29°53' E 122°13'0 0.2
2016-Apr-22 11:25N 29°53' E 122°13'0 0.0
2016-Apr-22 06:13N 29°53' E 122°13'0 0.0
2016-Apr-21 16:31N 29°53' E 122°13'0 0.0
2016-Apr-21 15:25N 29°53' E 122°13'0 0.2
2016-Apr-21 14:31N 29°53' E 122°13'0 0.0
2016-Apr-21 03:25N 29°53' E 122°13'0 0.0
2016-Apr-20 14:12N 29°53' E 122°13'0 0.1
2016-Apr-20 13:18N 29°53' E 122°13'0 0.1
2016-Apr-20 09:12N 29°53' E 122°13'0 0.0
2016-Apr-20 08:33N 29°53' E 122°13'3 3.3
2016-Apr-20 07:33N 29°50' E 122°13'7 7.0
2016-Apr-20 06:33N 29°45' E 122°19'7 6.7
2016-Apr-20 05:33N 29°44' E 122°27'1 0.6
2016-Apr-20 04:33N 29°44' E 122°27'6 5.6
2016-Apr-20 03:28N 29°39' E 122°31'1211.3
2016-Apr-20 02:24N 29°27' E 122°31'  

Dump ship's entire track history